sensor_id;sensor_type;location;lat;lon;timestamp;temperature;humidity
78696;SHT31;68030;51.980;5.646;2024-03-17T00:00:08;9.3;61.7
78696;SHT31;68030;51.980;5.646;2024-03-17T00:02:41;9.4;61.7
78696;SHT31;68030;51.980;5.646;2024-03-17T00:05:11;9.4;61.7
78696;SHT31;68030;51.980;5.646;2024-03-17T00:07:40;9.4;61.8
78696;SHT31;68030;51.980;5.646;2024-03-17T00:10:09;9.4;61.8
78696;SHT31;68030;51.980;5.646;2024-03-17T00:12:39;9.4;61.7
78696;SHT31;68030;51.980;5.646;2024-03-17T00:15:08;9.4;61.6
78696;SHT31;68030;51.980;5.646;2024-03-17T00:17:37;9.4;61.6
78696;SHT31;68030;51.980;5.646;2024-03-17T00:20:07;9.4;61.7
78696;SHT31;68030;51.980;5.646;2024-03-17T00:22:42;9.4;61.7
78696;SHT31;68030;51.980;5.646;2024-03-17T00:25:10;9.4;61.8
78696;SHT31;68030;51.980;5.646;2024-03-17T00:27:38;9.5;61.8
78696;SHT31;68030;51.980;5.646;2024-03-17T00:30:10;9.5;62.0
78696;SHT31;68030;51.980;5.646;2024-03-17T00:32:42;9.5;61.8
78696;SHT31;68030;51.980;5.646;2024-03-17T00:35:11;9.5;61.7
78696;SHT31;68030;51.980;5.646;2024-03-17T00:37:44;9.5;61.7
78696;SHT31;68030;51.980;5.646;2024-03-17T00:40:13;9.5;61.7
78696;SHT31;68030;51.980;5.646;2024-03-17T00:42:43;9.5;61.7
78696;SHT31;68030;51.980;5.646;2024-03-17T00:45:13;9.5;61.7
78696;SHT31;68030;51.980;5.646;2024-03-17T00:47:42;9.5;61.9
78696;SHT31;68030;51.980;5.646;2024-03-17T00:50:11;9.5;62.0
78696;SHT31;68030;51.980;5.646;2024-03-17T00:52:39;9.5;62.0
78696;SHT31;68030;51.980;5.646;2024-03-17T00:55:08;9.6;62.2
78696;SHT31;68030;51.980;5.646;2024-03-17T00:57:37;9.6;62.1
78696;SHT31;68030;51.980;5.646;2024-03-17T01:00:07;9.6;62.0
78696;SHT31;68030;51.980;5.646;2024-03-17T01:02:36;9.6;61.9
78696;SHT31;68030;51.980;5.646;2024-03-17T01:05:07;9.6;61.8
78696;SHT31;68030;51.980;5.646;2024-03-17T01:07:38;9.6;61.8
78696;SHT31;68030;51.980;5.646;2024-03-17T01:10:08;9.6;61.9
78696;SHT31;68030;51.980;5.646;2024-03-17T01:12:36;9.6;61.9
78696;SHT31;68030;51.980;5.646;2024-03-17T01:15:06;9.6;61.9
78696;SHT31;68030;51.980;5.646;2024-03-17T01:17:35;9.6;62.0
78696;SHT31;68030;51.980;5.646;2024-03-17T01:20:04;9.6;61.9
78696;SHT31;68030;51.980;5.646;2024-03-17T01:22:33;9.6;62.0
78696;SHT31;68030;51.980;5.646;2024-03-17T01:25:02;9.7;61.8
78696;SHT31;68030;51.980;5.646;2024-03-17T01:27:32;9.7;61.7
78696;SHT31;68030;51.980;5.646;2024-03-17T01:30:01;9.7;61.9
78696;SHT31;68030;51.980;5.646;2024-03-17T01:32:29;9.7;61.8
78696;SHT31;68030;51.980;5.646;2024-03-17T01:34:58;9.7;61.8
78696;SHT31;68030;51.980;5.646;2024-03-17T01:37:26;9.7;61.8
78696;SHT31;68030;51.980;5.646;2024-03-17T01:39:58;9.7;61.7
78696;SHT31;68030;51.980;5.646;2024-03-17T01:42:27;9.7;61.7
78696;SHT31;68030;51.980;5.646;2024-03-17T01:44:56;9.7;61.8
78696;SHT31;68030;51.980;5.646;2024-03-17T01:47:25;9.7;61.7
78696;SHT31;68030;51.980;5.646;2024-03-17T01:49:55;9.7;61.7
78696;SHT31;68030;51.980;5.646;2024-03-17T01:52:23;9.7;61.7
78696;SHT31;68030;51.980;5.646;2024-03-17T01:54:53;9.7;61.7
78696;SHT31;68030;51.980;5.646;2024-03-17T01:57:22;9.6;61.6
78696;SHT31;68030;51.980;5.646;2024-03-17T01:59:51;9.6;61.5
78696;SHT31;68030;51.980;5.646;2024-03-17T02:02:19;9.6;61.4
78696;SHT31;68030;51.980;5.646;2024-03-17T02:04:49;9.6;61.4
78696;SHT31;68030;51.980;5.646;2024-03-17T02:07:18;9.6;61.2
78696;SHT31;68030;51.980;5.646;2024-03-17T02:09:49;9.6;61.2
78696;SHT31;68030;51.980;5.646;2024-03-17T02:12:18;9.6;60.9
78696;SHT31;68030;51.980;5.646;2024-03-17T02:14:46;9.6;60.9
78696;SHT31;68030;51.980;5.646;2024-03-17T02:17:15;9.6;60.9
78696;SHT31;68030;51.980;5.646;2024-03-17T02:19:43;9.5;61.1
78696;SHT31;68030;51.980;5.646;2024-03-17T02:22:14;9.5;61.0
78696;SHT31;68030;51.980;5.646;2024-03-17T02:24:43;9.5;60.9
78696;SHT31;68030;51.980;5.646;2024-03-17T02:27:13;9.5;60.9
78696;SHT31;68030;51.980;5.646;2024-03-17T02:29:42;9.5;61.0
78696;SHT31;68030;51.980;5.646;2024-03-17T02:32:13;9.5;60.9
78696;SHT31;68030;51.980;5.646;2024-03-17T02:34:42;9.5;60.9
78696;SHT31;68030;51.980;5.646;2024-03-17T02:37:11;9.5;60.6
78696;SHT31;68030;51.980;5.646;2024-03-17T02:39:40;9.6;60.5
78696;SHT31;68030;51.980;5.646;2024-03-17T02:42:10;9.6;60.5
78696;SHT31;68030;51.980;5.646;2024-03-17T02:44:39;9.6;60.9
78696;SHT31;68030;51.980;5.646;2024-03-17T02:47:09;9.6;60.4
78696;SHT31;68030;51.980;5.646;2024-03-17T02:49:39;9.7;60.2
78696;SHT31;68030;51.980;5.646;2024-03-17T02:52:11;9.7;60.1
78696;SHT31;68030;51.980;5.646;2024-03-17T02:54:40;9.7;60.0
78696;SHT31;68030;51.980;5.646;2024-03-17T02:57:09;9.8;59.9
78696;SHT31;68030;51.980;5.646;2024-03-17T02:59:38;9.8;60.1
78696;SHT31;68030;51.980;5.646;2024-03-17T03:02:06;9.9;60.0
78696;SHT31;68030;51.980;5.646;2024-03-17T03:04:37;9.9;60.0
78696;SHT31;68030;51.980;5.646;2024-03-17T03:07:06;9.9;60.0
78696;SHT31;68030;51.980;5.646;2024-03-17T03:09:34;10.0;59.9
78696;SHT31;68030;51.980;5.646;2024-03-17T03:12:03;10.0;59.8
78696;SHT31;68030;51.980;5.646;2024-03-17T03:14:34;10.0;59.8
78696;SHT31;68030;51.980;5.646;2024-03-17T03:17:03;10.1;59.7
78696;SHT31;68030;51.980;5.646;2024-03-17T03:19:31;10.1;59.8
78696;SHT31;68030;51.980;5.646;2024-03-17T03:22:00;10.1;59.6
78696;SHT31;68030;51.980;5.646;2024-03-17T03:24:29;10.2;59.6
78696;SHT31;68030;51.980;5.646;2024-03-17T03:26:59;10.2;59.7
78696;SHT31;68030;51.980;5.646;2024-03-17T03:29:27;10.2;59.7
78696;SHT31;68030;51.980;5.646;2024-03-17T03:31:56;10.3;59.6
78696;SHT31;68030;51.980;5.646;2024-03-17T03:34:25;10.3;59.5
78696;SHT31;68030;51.980;5.646;2024-03-17T03:36:53;10.3;59.5
78696;SHT31;68030;51.980;5.646;2024-03-17T03:39:22;10.4;59.5
78696;SHT31;68030;51.980;5.646;2024-03-17T03:41:57;10.4;59.3
78696;SHT31;68030;51.980;5.646;2024-03-17T03:44:25;10.4;59.3
78696;SHT31;68030;51.980;5.646;2024-03-17T03:46:54;10.4;59.1
78696;SHT31;68030;51.980;5.646;2024-03-17T03:49:27;10.5;59.0
78696;SHT31;68030;51.980;5.646;2024-03-17T03:51:57;10.5;58.9
78696;SHT31;68030;51.980;5.646;2024-03-17T03:54:25;10.5;58.9
78696;SHT31;68030;51.980;5.646;2024-03-17T03:56:53;10.5;58.8
78696;SHT31;68030;51.980;5.646;2024-03-17T03:59:23;10.5;58.8
78696;SHT31;68030;51.980;5.646;2024-03-17T04:01:52;10.5;59.0
78696;SHT31;68030;51.980;5.646;2024-03-17T04:04:20;10.5;59.1
78696;SHT31;68030;51.980;5.646;2024-03-17T04:06:49;10.5;59.0
78696;SHT31;68030;51.980;5.646;2024-03-17T04:09:17;10.5;59.0
78696;SHT31;68030;51.980;5.646;2024-03-17T04:11:46;10.5;59.0
78696;SHT31;68030;51.980;5.646;2024-03-17T04:14:15;10.5;59.0
78696;SHT31;68030;51.980;5.646;2024-03-17T04:16:44;10.5;59.1
78696;SHT31;68030;51.980;5.646;2024-03-17T04:19:12;10.4;59.1
78696;SHT31;68030;51.980;5.646;2024-03-17T04:21:43;10.4;59.2
78696;SHT31;68030;51.980;5.646;2024-03-17T04:24:12;10.4;59.3
78696;SHT31;68030;51.980;5.646;2024-03-17T04:26:42;10.3;59.4
78696;SHT31;68030;51.980;5.646;2024-03-17T04:29:11;10.3;59.5
78696;SHT31;68030;51.980;5.646;2024-03-17T04:31:41;10.3;59.7
78696;SHT31;68030;51.980;5.646;2024-03-17T04:34:15;10.3;59.8
78696;SHT31;68030;51.980;5.646;2024-03-17T04:36:43;10.2;60.0
78696;SHT31;68030;51.980;5.646;2024-03-17T04:39:12;10.2;60.0
78696;SHT31;68030;51.980;5.646;2024-03-17T04:41:41;10.2;60.1
78696;SHT31;68030;51.980;5.646;2024-03-17T04:44:11;10.2;60.1
78696;SHT31;68030;51.980;5.646;2024-03-17T04:46:39;10.2;60.2
78696;SHT31;68030;51.980;5.646;2024-03-17T04:49:08;10.1;60.3
78696;SHT31;68030;51.980;5.646;2024-03-17T04:51:36;10.1;60.4
78696;SHT31;68030;51.980;5.646;2024-03-17T04:54:06;10.1;60.5
78696;SHT31;68030;51.980;5.646;2024-03-17T04:56:35;10.1;60.6
78696;SHT31;68030;51.980;5.646;2024-03-17T04:59:06;10.1;60.7
78696;SHT31;68030;51.980;5.646;2024-03-17T05:01:35;10.1;60.6
78696;SHT31;68030;51.980;5.646;2024-03-17T05:04:05;10.1;60.8
78696;SHT31;68030;51.980;5.646;2024-03-17T05:06:33;10.1;60.8
78696;SHT31;68030;51.980;5.646;2024-03-17T05:09:02;10.1;61.0
78696;SHT31;68030;51.980;5.646;2024-03-17T05:11:31;10.1;61.0
78696;SHT31;68030;51.980;5.646;2024-03-17T05:14:03;10.1;61.0
78696;SHT31;68030;51.980;5.646;2024-03-17T05:16:32;10.1;61.0
78696;SHT31;68030;51.980;5.646;2024-03-17T05:19:01;10.1;61.0
78696;SHT31;68030;51.980;5.646;2024-03-17T05:21:30;10.2;60.9
78696;SHT31;68030;51.980;5.646;2024-03-17T05:24:01;10.2;60.8
78696;SHT31;68030;51.980;5.646;2024-03-17T05:26:30;10.2;60.9
78696;SHT31;68030;51.980;5.646;2024-03-17T05:28:58;10.2;61.0
78696;SHT31;68030;51.980;5.646;2024-03-17T05:31:27;10.2;60.8
78696;SHT31;68030;51.980;5.646;2024-03-17T05:33:56;10.2;60.9
78696;SHT31;68030;51.980;5.646;2024-03-17T05:36:24;10.2;60.8
78696;SHT31;68030;51.980;5.646;2024-03-17T05:38:53;10.2;60.8
78696;SHT31;68030;51.980;5.646;2024-03-17T05:41:21;10.2;61.0
78696;SHT31;68030;51.980;5.646;2024-03-17T05:43:52;10.2;61.0
78696;SHT31;68030;51.980;5.646;2024-03-17T05:46:25;10.2;60.8
78696;SHT31;68030;51.980;5.646;2024-03-17T05:48:55;10.2;60.8
78696;SHT31;68030;51.980;5.646;2024-03-17T05:51:23;10.2;60.9
78696;SHT31;68030;51.980;5.646;2024-03-17T05:53:54;10.3;60.9
78696;SHT31;68030;51.980;5.646;2024-03-17T05:56:25;10.3;60.9
78696;SHT31;68030;51.980;5.646;2024-03-17T05:58:55;10.3;60.7
78696;SHT31;68030;51.980;5.646;2024-03-17T06:01:24;10.3;60.8
78696;SHT31;68030;51.980;5.646;2024-03-17T06:03:52;10.3;60.9
78696;SHT31;68030;51.980;5.646;2024-03-17T06:06:20;10.3;60.8
78696;SHT31;68030;51.980;5.646;2024-03-17T06:08:49;10.3;60.9
78696;SHT31;68030;51.980;5.646;2024-03-17T06:11:19;10.3;61.0
78696;SHT31;68030;51.980;5.646;2024-03-17T06:13:48;10.3;60.9
78696;SHT31;68030;51.980;5.646;2024-03-17T06:16:17;10.3;60.9
78696;SHT31;68030;51.980;5.646;2024-03-17T06:18:46;10.3;60.9
78696;SHT31;68030;51.980;5.646;2024-03-17T06:21:16;10.3;60.7
78696;SHT31;68030;51.980;5.646;2024-03-17T06:23:45;10.3;60.3
78696;SHT31;68030;51.980;5.646;2024-03-17T06:26:16;10.3;60.4
78696;SHT31;68030;51.980;5.646;2024-03-17T06:28:47;10.4;60.4
78696;SHT31;68030;51.980;5.646;2024-03-17T06:31:17;10.4;60.3
78696;SHT31;68030;51.980;5.646;2024-03-17T06:33:45;10.4;60.2
78696;SHT31;68030;51.980;5.646;2024-03-17T06:36:15;10.4;60.3
78696;SHT31;68030;51.980;5.646;2024-03-17T06:38:44;10.5;60.3
78696;SHT31;68030;51.980;5.646;2024-03-17T06:41:12;10.5;60.2
78696;SHT31;68030;51.980;5.646;2024-03-17T06:43:41;10.5;60.0
78696;SHT31;68030;51.980;5.646;2024-03-17T06:46:11;10.6;59.9
78696;SHT31;68030;51.980;5.646;2024-03-17T06:48:39;10.6;59.8
78696;SHT31;68030;51.980;5.646;2024-03-17T06:51:08;10.6;59.6
78696;SHT31;68030;51.980;5.646;2024-03-17T06:53:36;10.7;59.6
78696;SHT31;68030;51.980;5.646;2024-03-17T06:56:06;10.7;59.3
78696;SHT31;68030;51.980;5.646;2024-03-17T06:58:34;10.7;59.4
78696;SHT31;68030;51.980;5.646;2024-03-17T07:01:03;10.8;59.3
78696;SHT31;68030;51.980;5.646;2024-03-17T07:03:32;10.8;59.4
78696;SHT31;68030;51.980;5.646;2024-03-17T07:06:02;10.8;59.8
78696;SHT31;68030;51.980;5.646;2024-03-17T07:08:34;10.9;59.5
78696;SHT31;68030;51.980;5.646;2024-03-17T07:11:05;10.9;59.5
78696;SHT31;68030;51.980;5.646;2024-03-17T07:13:35;11.0;59.5
78696;SHT31;68030;51.980;5.646;2024-03-17T07:16:06;11.1;59.6
78696;SHT31;68030;51.980;5.646;2024-03-17T07:18:36;11.1;59.5
78696;SHT31;68030;51.980;5.646;2024-03-17T07:21:05;11.2;59.4
78696;SHT31;68030;51.980;5.646;2024-03-17T07:23:36;11.3;59.4
78696;SHT31;68030;51.980;5.646;2024-03-17T07:26:06;11.3;59.2
78696;SHT31;68030;51.980;5.646;2024-03-17T07:28:35;11.4;59.1
78696;SHT31;68030;51.980;5.646;2024-03-17T07:31:09;11.4;59.3
78696;SHT31;68030;51.980;5.646;2024-03-17T07:33:38;11.5;59.2
78696;SHT31;68030;51.980;5.646;2024-03-17T07:36:08;11.5;59.1
78696;SHT31;68030;51.980;5.646;2024-03-17T07:38:37;11.6;59.1
78696;SHT31;68030;51.980;5.646;2024-03-17T07:41:08;11.7;59.1
78696;SHT31;68030;51.980;5.646;2024-03-17T07:43:38;11.7;58.8
78696;SHT31;68030;51.980;5.646;2024-03-17T07:46:09;11.8;59.0
78696;SHT31;68030;51.980;5.646;2024-03-17T07:48:40;11.9;58.3
78696;SHT31;68030;51.980;5.646;2024-03-17T07:51:10;12.0;57.8
78696;SHT31;68030;51.980;5.646;2024-03-17T07:53:41;12.0;57.9
78696;SHT31;68030;51.980;5.646;2024-03-17T07:56:12;12.1;57.3
78696;SHT31;68030;51.980;5.646;2024-03-17T07:58:43;12.2;56.8
78696;SHT31;68030;51.980;5.646;2024-03-17T08:01:14;12.2;56.5
78696;SHT31;68030;51.980;5.646;2024-03-17T08:03:45;12.3;56.5
78696;SHT31;68030;51.980;5.646;2024-03-17T08:06:16;12.4;55.8
78696;SHT31;68030;51.980;5.646;2024-03-17T08:08:44;12.5;55.7
78696;SHT31;68030;51.980;5.646;2024-03-17T08:11:13;12.5;55.1
78696;SHT31;68030;51.980;5.646;2024-03-17T08:13:44;12.6;55.3
78696;SHT31;68030;51.980;5.646;2024-03-17T08:16:13;12.7;54.9
78696;SHT31;68030;51.980;5.646;2024-03-17T08:18:45;12.8;54.8
78696;SHT31;68030;51.980;5.646;2024-03-17T08:21:14;12.9;54.6
78696;SHT31;68030;51.980;5.646;2024-03-17T08:23:42;13.0;54.6
78696;SHT31;68030;51.980;5.646;2024-03-17T08:26:13;13.1;53.8
78696;SHT31;68030;51.980;5.646;2024-03-17T08:28:42;13.2;53.9
78696;SHT31;68030;51.980;5.646;2024-03-17T08:31:10;13.2;53.6
78696;SHT31;68030;51.980;5.646;2024-03-17T08:33:44;13.3;53.5
78696;SHT31;68030;51.980;5.646;2024-03-17T08:36:18;13.4;53.1
78696;SHT31;68030;51.980;5.646;2024-03-17T08:38:49;13.4;52.8
78696;SHT31;68030;51.980;5.646;2024-03-17T08:41:18;13.5;52.5
78696;SHT31;68030;51.980;5.646;2024-03-17T08:43:46;13.6;52.6
78696;SHT31;68030;51.980;5.646;2024-03-17T08:46:15;13.6;52.7
78696;SHT31;68030;51.980;5.646;2024-03-17T08:48:45;13.6;52.8
78696;SHT31;68030;51.980;5.646;2024-03-17T08:51:13;13.7;52.3
78696;SHT31;68030;51.980;5.646;2024-03-17T08:53:42;13.7;52.4
78696;SHT31;68030;51.980;5.646;2024-03-17T08:56:10;13.8;52.3
78696;SHT31;68030;51.980;5.646;2024-03-17T08:58:39;13.8;52.4
78696;SHT31;68030;51.980;5.646;2024-03-17T09:01:08;13.8;51.9
78696;SHT31;68030;51.980;5.646;2024-03-17T09:03:36;13.9;51.7
78696;SHT31;68030;51.980;5.646;2024-03-17T09:06:16;13.9;51.9
78696;SHT31;68030;51.980;5.646;2024-03-17T09:08:46;13.9;51.7
78696;SHT31;68030;51.980;5.646;2024-03-17T09:11:15;13.9;52.0
78696;SHT31;68030;51.980;5.646;2024-03-17T09:13:45;13.9;51.6
78696;SHT31;68030;51.980;5.646;2024-03-17T09:16:14;14.0;52.0
78696;SHT31;68030;51.980;5.646;2024-03-17T09:18:45;14.0;52.0
78696;SHT31;68030;51.980;5.646;2024-03-17T09:21:13;14.1;52.4
78696;SHT31;68030;51.980;5.646;2024-03-17T09:23:42;14.1;51.9
78696;SHT31;68030;51.980;5.646;2024-03-17T09:26:11;14.2;51.4
78696;SHT31;68030;51.980;5.646;2024-03-17T09:28:43;14.3;51.5
78696;SHT31;68030;51.980;5.646;2024-03-17T09:31:12;14.3;51.7
78696;SHT31;68030;51.980;5.646;2024-03-17T09:33:41;14.4;50.9
78696;SHT31;68030;51.980;5.646;2024-03-17T09:36:10;14.5;51.1
78696;SHT31;68030;51.980;5.646;2024-03-17T09:38:40;14.6;50.7
78696;SHT31;68030;51.980;5.646;2024-03-17T09:41:19;14.6;50.4
78696;SHT31;68030;51.980;5.646;2024-03-17T09:43:48;14.7;49.7
78696;SHT31;68030;51.980;5.646;2024-03-17T09:46:19;14.8;50.0
78696;SHT31;68030;51.980;5.646;2024-03-17T09:48:47;14.9;49.8
78696;SHT31;68030;51.980;5.646;2024-03-17T09:51:19;15.0;49.8
78696;SHT31;68030;51.980;5.646;2024-03-17T09:53:51;15.1;49.4
78696;SHT31;68030;51.980;5.646;2024-03-17T09:56:21;15.1;49.3
78696;SHT31;68030;51.980;5.646;2024-03-17T09:58:52;15.3;49.0
78696;SHT31;68030;51.980;5.646;2024-03-17T10:01:20;15.4;48.7
78696;SHT31;68030;51.980;5.646;2024-03-17T10:03:51;15.5;48.6
78696;SHT31;68030;51.980;5.646;2024-03-17T10:06:22;15.6;48.4
78696;SHT31;68030;51.980;5.646;2024-03-17T10:08:52;15.6;48.1
78696;SHT31;68030;51.980;5.646;2024-03-17T10:11:23;15.7;48.0
78696;SHT31;68030;51.980;5.646;2024-03-17T10:14:01;15.9;48.4
78696;SHT31;68030;51.980;5.646;2024-03-17T10:16:33;16.0;48.2
78696;SHT31;68030;51.980;5.646;2024-03-17T10:19:10;16.1;46.9
78696;SHT31;68030;51.980;5.646;2024-03-17T10:21:41;16.3;46.8
78696;SHT31;68030;51.980;5.646;2024-03-17T10:24:12;16.4;46.9
78696;SHT31;68030;51.980;5.646;2024-03-17T10:26:49;16.5;46.4
78696;SHT31;68030;51.980;5.646;2024-03-17T10:29:24;16.6;46.4
78696;SHT31;68030;51.980;5.646;2024-03-17T10:31:55;16.7;46.2
78696;SHT31;68030;51.980;5.646;2024-03-17T10:34:26;16.8;46.3
78696;SHT31;68030;51.980;5.646;2024-03-17T10:37:07;16.9;45.8
78696;SHT31;68030;51.980;5.646;2024-03-17T10:39:39;17.0;45.6
78696;SHT31;68030;51.980;5.646;2024-03-17T10:42:10;17.0;45.7
78696;SHT31;68030;51.980;5.646;2024-03-17T10:44:41;17.0;45.8
78696;SHT31;68030;51.980;5.646;2024-03-17T10:47:20;17.1;45.8
78696;SHT31;68030;51.980;5.646;2024-03-17T10:49:53;17.1;45.5
78696;SHT31;68030;51.980;5.646;2024-03-17T10:52:23;17.2;46.1
78696;SHT31;68030;51.980;5.646;2024-03-17T10:54:55;17.2;45.8
78696;SHT31;68030;51.980;5.646;2024-03-17T10:57:35;17.3;46.1
78696;SHT31;68030;51.980;5.646;2024-03-17T11:00:07;17.3;45.9
78696;SHT31;68030;51.980;5.646;2024-03-17T11:02:36;17.4;45.8
78696;SHT31;68030;51.980;5.646;2024-03-17T11:05:14;17.4;45.8
78696;SHT31;68030;51.980;5.646;2024-03-17T11:07:45;17.5;45.5
78696;SHT31;68030;51.980;5.646;2024-03-17T11:10:19;17.5;45.7
78696;SHT31;68030;51.980;5.646;2024-03-17T11:12:51;17.6;45.2
78696;SHT31;68030;51.980;5.646;2024-03-17T11:15:40;17.5;45.5
78696;SHT31;68030;51.980;5.646;2024-03-17T11:18:32;17.5;45.9
78696;SHT31;68030;51.980;5.646;2024-03-17T11:21:03;17.5;45.8
78696;SHT31;68030;51.980;5.646;2024-03-17T11:23:38;17.5;45.8
78696;SHT31;68030;51.980;5.646;2024-03-17T11:26:08;17.5;45.5
78696;SHT31;68030;51.980;5.646;2024-03-17T11:28:48;17.5;45.8
78696;SHT31;68030;51.980;5.646;2024-03-17T11:31:39;17.5;45.9
78696;SHT31;68030;51.980;5.646;2024-03-17T11:34:28;17.5;45.7
78696;SHT31;68030;51.980;5.646;2024-03-17T11:36:58;17.5;45.8
78696;SHT31;68030;51.980;5.646;2024-03-17T11:39:53;17.5;45.4
78696;SHT31;68030;51.980;5.646;2024-03-17T11:42:26;17.5;45.5
78696;SHT31;68030;51.980;5.646;2024-03-17T11:44:59;17.5;45.0
78696;SHT31;68030;51.980;5.646;2024-03-17T11:47:40;17.5;45.5
78696;SHT31;68030;51.980;5.646;2024-03-17T11:50:10;17.5;45.9
78696;SHT31;68030;51.980;5.646;2024-03-17T11:52:40;17.4;45.8
78696;SHT31;68030;51.980;5.646;2024-03-17T11:55:18;17.4;46.4
78696;SHT31;68030;51.980;5.646;2024-03-17T11:57:47;17.4;46.6
78696;SHT31;68030;51.980;5.646;2024-03-17T12:00:22;17.4;46.6
78696;SHT31;68030;51.980;5.646;2024-03-17T12:02:52;17.4;46.7
78696;SHT31;68030;51.980;5.646;2024-03-17T12:05:25;17.4;46.6
78696;SHT31;68030;51.980;5.646;2024-03-17T12:07:56;17.3;46.7
78696;SHT31;68030;51.980;5.646;2024-03-17T12:10:24;17.3;47.0
78696;SHT31;68030;51.980;5.646;2024-03-17T12:12:54;17.2;47.0
78696;SHT31;68030;51.980;5.646;2024-03-17T12:15:23;17.1;47.4
78696;SHT31;68030;51.980;5.646;2024-03-17T12:17:55;17.0;47.7
78696;SHT31;68030;51.980;5.646;2024-03-17T12:20:26;16.9;48.3
78696;SHT31;68030;51.980;5.646;2024-03-17T12:22:55;16.9;48.2
78696;SHT31;68030;51.980;5.646;2024-03-17T12:25:25;16.8;48.3
78696;SHT31;68030;51.980;5.646;2024-03-17T12:27:55;16.8;48.6
78696;SHT31;68030;51.980;5.646;2024-03-17T12:30:24;16.7;48.3
78696;SHT31;68030;51.980;5.646;2024-03-17T12:32:53;16.7;48.7
78696;SHT31;68030;51.980;5.646;2024-03-17T12:35:22;16.6;48.9
78696;SHT31;68030;51.980;5.646;2024-03-17T12:37:50;16.6;49.6
78696;SHT31;68030;51.980;5.646;2024-03-17T12:40:21;16.6;50.0
78696;SHT31;68030;51.980;5.646;2024-03-17T12:42:51;16.6;50.1
78696;SHT31;68030;51.980;5.646;2024-03-17T12:45:23;16.7;50.2
78696;SHT31;68030;51.980;5.646;2024-03-17T12:47:52;16.8;49.8
78696;SHT31;68030;51.980;5.646;2024-03-17T12:50:21;16.8;49.5
78696;SHT31;68030;51.980;5.646;2024-03-17T12:52:55;16.8;49.5
78696;SHT31;68030;51.980;5.646;2024-03-17T12:55:24;16.9;49.7
78696;SHT31;68030;51.980;5.646;2024-03-17T12:58:10;16.9;49.6
78696;SHT31;68030;51.980;5.646;2024-03-17T13:01:00;16.9;49.3
78696;SHT31;68030;51.980;5.646;2024-03-17T13:03:31;16.9;49.1
78696;SHT31;68030;51.980;5.646;2024-03-17T13:06:01;16.9;49.0
78696;SHT31;68030;51.980;5.646;2024-03-17T13:08:32;16.9;49.2
78696;SHT31;68030;51.980;5.646;2024-03-17T13:11:02;16.9;49.3
78696;SHT31;68030;51.980;5.646;2024-03-17T13:13:32;16.9;48.7
78696;SHT31;68030;51.980;5.646;2024-03-17T13:16:03;16.9;49.0
78696;SHT31;68030;51.980;5.646;2024-03-17T13:18:34;16.9;49.0
78696;SHT31;68030;51.980;5.646;2024-03-17T13:21:03;16.9;49.0
78696;SHT31;68030;51.980;5.646;2024-03-17T13:23:33;16.9;49.0
78696;SHT31;68030;51.980;5.646;2024-03-17T13:26:01;16.9;48.9
78696;SHT31;68030;51.980;5.646;2024-03-17T13:28:29;16.9;49.2
78696;SHT31;68030;51.980;5.646;2024-03-17T13:30:58;16.9;49.4
78696;SHT31;68030;51.980;5.646;2024-03-17T13:33:28;16.9;49.3
78696;SHT31;68030;51.980;5.646;2024-03-17T13:35:56;16.8;49.7
78696;SHT31;68030;51.980;5.646;2024-03-17T13:38:25;16.8;49.8
78696;SHT31;68030;51.980;5.646;2024-03-17T13:40:54;16.8;50.0
78696;SHT31;68030;51.980;5.646;2024-03-17T13:43:23;16.8;50.1
78696;SHT31;68030;51.980;5.646;2024-03-17T13:45:51;16.9;49.9
78696;SHT31;68030;51.980;5.646;2024-03-17T13:48:20;16.9;49.9
78696;SHT31;68030;51.980;5.646;2024-03-17T13:50:49;16.9;50.2
78696;SHT31;68030;51.980;5.646;2024-03-17T13:53:17;16.8;50.0
78696;SHT31;68030;51.980;5.646;2024-03-17T13:55:46;16.8;50.2
78696;SHT31;68030;51.980;5.646;2024-03-17T13:58:15;16.8;50.4
78696;SHT31;68030;51.980;5.646;2024-03-17T14:00:44;16.8;50.4
78696;SHT31;68030;51.980;5.646;2024-03-17T14:03:13;16.8;50.5
78696;SHT31;68030;51.980;5.646;2024-03-17T14:05:43;16.8;50.8
78696;SHT31;68030;51.980;5.646;2024-03-17T14:08:11;16.8;50.8
78696;SHT31;68030;51.980;5.646;2024-03-17T14:10:40;16.8;51.0
78696;SHT31;68030;51.980;5.646;2024-03-17T14:13:10;16.8;50.8
78696;SHT31;68030;51.980;5.646;2024-03-17T14:15:38;16.8;50.8
78696;SHT31;68030;51.980;5.646;2024-03-17T14:18:07;16.8;50.5
78696;SHT31;68030;51.980;5.646;2024-03-17T14:20:36;16.8;51.9
78696;SHT31;68030;51.980;5.646;2024-03-17T14:23:05;16.8;50.5
78696;SHT31;68030;51.980;5.646;2024-03-17T14:25:34;16.8;50.2
78696;SHT31;68030;51.980;5.646;2024-03-17T14:28:04;16.9;50.4
78696;SHT31;68030;51.980;5.646;2024-03-17T14:30:33;16.9;50.5
78696;SHT31;68030;51.980;5.646;2024-03-17T14:33:01;16.9;50.6
78696;SHT31;68030;51.980;5.646;2024-03-17T14:35:32;16.9;50.7
78696;SHT31;68030;51.980;5.646;2024-03-17T14:38:01;17.0;50.6
78696;SHT31;68030;51.980;5.646;2024-03-17T14:40:29;17.0;49.8
78696;SHT31;68030;51.980;5.646;2024-03-17T14:42:58;17.1;49.8
78696;SHT31;68030;51.980;5.646;2024-03-17T14:45:29;17.1;49.4
78696;SHT31;68030;51.980;5.646;2024-03-17T14:47:58;17.1;49.5
78696;SHT31;68030;51.980;5.646;2024-03-17T14:50:26;17.2;49.5
78696;SHT31;68030;51.980;5.646;2024-03-17T14:52:55;17.2;49.8
78696;SHT31;68030;51.980;5.646;2024-03-17T14:55:23;17.2;49.8
78696;SHT31;68030;51.980;5.646;2024-03-17T14:57:52;17.2;49.7
78696;SHT31;68030;51.980;5.646;2024-03-17T15:00:21;17.2;50.0
78696;SHT31;68030;51.980;5.646;2024-03-17T15:02:52;17.2;49.4
78696;SHT31;68030;51.980;5.646;2024-03-17T15:05:20;17.2;49.5
78696;SHT31;68030;51.980;5.646;2024-03-17T15:07:50;17.3;50.0
78696;SHT31;68030;51.980;5.646;2024-03-17T15:10:19;17.3;50.2
78696;SHT31;68030;51.980;5.646;2024-03-17T15:12:50;17.3;50.0
78696;SHT31;68030;51.980;5.646;2024-03-17T15:15:21;17.3;49.9
78696;SHT31;68030;51.980;5.646;2024-03-17T15:17:50;17.4;49.8
78696;SHT31;68030;51.980;5.646;2024-03-17T15:20:19;17.4;49.7
78696;SHT31;68030;51.980;5.646;2024-03-17T15:22:49;17.4;49.6
78696;SHT31;68030;51.980;5.646;2024-03-17T15:25:18;17.4;49.5
78696;SHT31;68030;51.980;5.646;2024-03-17T15:27:51;17.5;49.8
78696;SHT31;68030;51.980;5.646;2024-03-17T15:30:20;17.5;49.5
78696;SHT31;68030;51.980;5.646;2024-03-17T15:32:52;17.5;49.5
78696;SHT31;68030;51.980;5.646;2024-03-17T15:35:21;17.5;49.2
78696;SHT31;68030;51.980;5.646;2024-03-17T15:37:50;17.5;49.4
78696;SHT31;68030;51.980;5.646;2024-03-17T15:40:19;17.5;49.5
78696;SHT31;68030;51.980;5.646;2024-03-17T15:42:48;17.5;49.9
78696;SHT31;68030;51.980;5.646;2024-03-17T15:45:18;17.5;49.5
78696;SHT31;68030;51.980;5.646;2024-03-17T15:47:50;17.5;49.5
78696;SHT31;68030;51.980;5.646;2024-03-17T15:50:20;17.5;49.6
78696;SHT31;68030;51.980;5.646;2024-03-17T15:52:48;17.5;49.7
78696;SHT31;68030;51.980;5.646;2024-03-17T15:55:18;17.5;50.0
78696;SHT31;68030;51.980;5.646;2024-03-17T15:57:49;17.5;50.2
78696;SHT31;68030;51.980;5.646;2024-03-17T16:00:19;17.4;50.3
78696;SHT31;68030;51.980;5.646;2024-03-17T16:02:47;17.4;50.4
78696;SHT31;68030;51.980;5.646;2024-03-17T16:05:19;17.4;50.7
78696;SHT31;68030;51.980;5.646;2024-03-17T16:07:48;17.4;50.9
78696;SHT31;68030;51.980;5.646;2024-03-17T16:10:20;17.3;50.9
78696;SHT31;68030;51.980;5.646;2024-03-17T16:12:50;17.3;51.3
78696;SHT31;68030;51.980;5.646;2024-03-17T16:15:20;17.3;51.2
78696;SHT31;68030;51.980;5.646;2024-03-17T16:17:52;17.3;51.1
78696;SHT31;68030;51.980;5.646;2024-03-17T16:20:48;17.2;51.2
78696;SHT31;68030;51.980;5.646;2024-03-17T16:23:22;17.2;51.4